createdAt,value
2019-03-11T00:00:39.779Z,43.46
2019-03-11T00:01:39.762Z,43.96
2019-03-11T00:02:39.749Z,43.56
2019-03-11T00:03:39.740Z,43.76
2019-03-11T00:04:39.727Z,43.36
2019-03-11T00:05:39.732Z,44.07
2019-03-11T00:06:39.701Z,44.07
2019-03-11T00:07:39.692Z,43.87
2019-03-11T00:08:39.680Z,44.07
2019-03-11T00:09:39.678Z,43.56
2019-03-11T00:10:39.678Z,43.66
2019-03-11T00:11:39.649Z,43.34
2019-03-11T00:12:39.643Z,42.66
2019-03-11T00:13:39.630Z,43.26
2019-03-11T00:14:39.617Z,43.04
2019-03-11T00:15:39.642Z,42.33
2019-03-11T00:16:39.598Z,43.06
2019-03-11T00:17:39.590Z,42.64
2019-03-11T00:18:39.575Z,42.33
2019-03-11T00:19:39.568Z,42.64
2019-03-11T00:20:39.557Z,42.94
2019-03-11T00:21:39.556Z,42.84
2019-03-11T00:22:39.530Z,42.64
2019-03-11T00:23:39.522Z,42.84
2019-03-11T00:24:39.512Z,42.54
2019-03-11T00:25:39.504Z,42.94
2019-03-11T00:26:39.503Z,42.94
2019-03-11T00:27:39.556Z,42.33
2019-03-11T00:28:39.474Z,43.04
2019-03-11T00:29:39.462Z,42.84
2019-03-11T00:30:39.451Z,42.01
2019-03-11T00:31:39.468Z,42.03
2019-03-11T00:32:39.431Z,42.32
2019-03-11T00:33:39.419Z,42.21
2019-03-11T00:34:39.410Z,42.01
2019-03-11T00:35:39.392Z,41.53
2019-03-11T00:36:39.387Z,41.83
2019-03-11T00:37:39.392Z,42.21
2019-03-11T00:38:39.364Z,42.01
2019-03-11T00:39:39.356Z,42.11
2019-03-11T00:40:39.339Z,41.91
2019-03-11T00:41:39.328Z,41.91
2019-03-11T00:42:39.355Z,42.11
2019-03-11T00:43:39.316Z,42.01
2019-03-11T00:44:39.300Z,42.21
2019-03-11T00:45:39.297Z,41.82
2019-03-11T00:46:39.278Z,41.51
2019-03-11T00:47:39.268Z,42.32
2019-03-11T00:48:39.280Z,42.21
2019-03-11T00:49:39.251Z,42.32
2019-03-11T00:50:39.238Z,41.61
2019-03-11T00:51:39.229Z,41.51
2019-03-11T00:52:39.269Z,41.51
2019-03-11T00:53:39.223Z,41.51
2019-03-11T00:54:39.199Z,41.71
2019-03-11T00:55:39.210Z,41.82
2019-03-11T00:56:39.175Z,41.82
2019-03-11T00:57:39.164Z,42.11
2019-03-11T00:58:39.176Z,42.10
2019-03-11T00:59:39.140Z,41.71
2019-03-11T01:00:39.129Z,41.71
2019-03-11T01:01:39.127Z,41.71
2019-03-11T01:02:39.113Z,41.71
2019-03-11T01:03:39.117Z,41.39
2019-03-11T01:04:39.089Z,41.99
2019-03-11T01:05:39.079Z,41.59
2019-03-11T01:06:39.070Z,41.21
2019-03-11T01:07:39.062Z,41.61
2019-03-11T01:08:39.057Z,41.71
2019-03-11T01:09:39.042Z,41.79
2019-03-11T01:10:39.026Z,41.79
2019-03-11T01:11:39.015Z,41.59
2019-03-11T01:12:39.008Z,40.99
2019-03-11T01:13:39.028Z,41.79
2019-03-11T01:14:38.982Z,41.89
2019-03-11T01:15:38.980Z,41.49
2019-03-11T01:16:38.970Z,41.69
2019-03-11T01:17:38.952Z,41.79
2019-03-11T01:18:38.943Z,41.59
2019-03-11T01:19:38.950Z,41.49
2019-03-11T01:20:38.920Z,41.59
2019-03-11T01:21:38.912Z,41.49
2019-03-11T01:22:38.909Z,41.79
2019-03-11T01:23:38.888Z,41.29
2019-03-11T01:24:38.892Z,41.89
2019-03-11T01:25:38.870Z,41.89
2019-03-11T01:26:38.859Z,40.99
2019-03-11T01:27:38.849Z,40.89
2019-03-11T01:28:38.841Z,40.57
2019-03-11T01:29:38.839Z,41.07
2019-03-11T01:30:38.816Z,40.35
2019-03-11T01:31:38.801Z,40.23
2019-03-11T01:32:38.799Z,38.90
2019-03-11T01:33:38.781Z,37.77
2019-03-11T01:34:38.786Z,37.75
2019-03-11T01:35:38.769Z,37.15
2019-03-11T01:36:38.753Z,37.03
2019-03-11T01:37:38.738Z,37.13
2019-03-11T01:38:38.734Z,36.51
2019-03-11T01:39:38.741Z,35.91
2019-03-11T01:40:38.711Z,36.21
2019-03-11T01:41:38.708Z,35.51
2019-03-11T01:42:38.699Z,36.41
2019-03-11T01:43:38.680Z,36.21
2019-03-11T01:44:38.714Z,36.11
2019-03-11T01:45:38.657Z,35.60
2019-03-11T01:46:38.644Z,35.08
2019-03-11T01:47:38.633Z,35.28
2019-03-11T01:48:38.633Z,34.38
2019-03-11T01:49:38.633Z,34.16
2019-03-11T01:50:38.601Z,34.96
2019-03-11T01:51:38.596Z,34.56
2019-03-11T01:52:38.581Z,34.56
2019-03-11T01:53:38.576Z,34.56
2019-03-11T01:54:38.583Z,34.46
2019-03-11T01:55:38.551Z,34.56
2019-03-11T01:56:38.541Z,34.46
2019-03-11T01:57:38.527Z,34.46
2019-03-11T01:58:38.546Z,34.66
2019-03-11T01:59:38.535Z,34.66
2019-03-11T02:00:38.498Z,34.06
2019-03-11T02:01:38.484Z,34.36
2019-03-11T02:02:38.477Z,33.95
2019-03-11T02:03:38.466Z,34.14
2019-03-11T02:04:38.454Z,34.34
2019-03-11T02:05:38.482Z,34.13
2019-03-11T02:06:38.436Z,34.43
2019-03-11T02:07:38.426Z,34.51
2019-03-11T02:08:38.411Z,33.73
2019-03-11T02:09:38.403Z,33.42
2019-03-11T02:10:38.403Z,33.91
2019-03-11T02:11:38.391Z,33.31
2019-03-11T02:12:38.379Z,33.12
2019-03-11T02:13:38.362Z,33.31
2019-03-11T02:14:38.355Z,34.03
2019-03-11T02:15:38.358Z,33.23
2019-03-11T02:16:38.329Z,33.93
2019-03-11T02:17:38.319Z,34.03
2019-03-11T02:18:38.311Z,34.53
2019-03-11T02:19:38.300Z,33.84
2019-03-11T02:20:38.299Z,34.25
2019-03-11T02:21:38.277Z,33.95
2019-03-11T02:22:38.268Z,34.25
2019-03-11T02:23:38.259Z,34.23
2019-03-11T02:24:38.243Z,33.81
2019-03-11T02:25:38.253Z,33.81
2019-03-11T02:26:38.223Z,33.22
2019-03-11T02:27:38.218Z,33.51
2019-03-11T02:28:38.204Z,33.72
2019-03-11T02:29:38.199Z,33.22
2019-03-11T02:30:38.198Z,33.42
2019-03-11T02:31:38.179Z,33.80
2019-03-11T02:32:38.155Z,33.60
2019-03-11T02:33:38.154Z,33.10
2019-03-11T02:34:38.138Z,33.40
2019-03-11T02:35:38.152Z,33.30
2019-03-11T02:36:38.123Z,33.10
2019-03-11T02:37:38.105Z,33.30
2019-03-11T02:38:38.206Z,33.30
2019-03-11T02:39:38.090Z,33.00
2019-03-11T02:40:38.090Z,33.70
2019-03-11T02:41:38.069Z,33.42
2019-03-11T02:42:38.053Z,33.31
2019-03-11T02:43:38.084Z,33.72
2019-03-11T02:44:38.053Z,34.01
2019-03-11T02:45:38.054Z,34.01
2019-03-11T02:46:38.012Z,33.61
2019-03-11T02:47:38.002Z,33.72
2019-03-11T02:48:37.997Z,33.81
2019-03-11T02:49:37.994Z,33.91
2019-03-11T02:50:37.987Z,33.42
2019-03-11T02:51:37.973Z,33.61
2019-03-11T02:52:37.952Z,33.81
2019-03-11T02:53:37.942Z,33.50
2019-03-11T02:54:37.929Z,32.80
2019-03-11T02:55:37.920Z,32.48
2019-03-11T02:56:37.927Z,32.89
2019-03-11T02:57:37.899Z,32.68
2019-03-11T02:58:37.899Z,32.98
2019-03-11T02:59:37.882Z,32.89
2019-03-11T03:00:37.864Z,33.08
2019-03-11T03:01:37.904Z,33.18
2019-03-11T03:02:37.862Z,33.08
2019-03-11T03:03:37.847Z,31.79
2019-03-11T03:04:37.824Z,31.79
2019-03-11T03:05:37.811Z,31.89
2019-03-11T03:06:37.822Z,31.79
2019-03-11T03:07:37.798Z,31.79
2019-03-11T03:08:37.784Z,31.89
2019-03-11T03:09:37.772Z,31.99
2019-03-11T03:10:37.760Z,32.68
2019-03-11T03:11:37.767Z,32.70
2019-03-11T03:12:37.742Z,32.90
2019-03-11T03:13:37.729Z,32.90
2019-03-11T03:14:37.715Z,32.70
2019-03-11T03:15:37.705Z,32.70
2019-03-11T03:16:37.710Z,32.50
2019-03-11T03:17:37.689Z,32.70
2019-03-11T03:18:37.674Z,32.68
2019-03-11T03:19:37.687Z,32.80
2019-03-11T03:20:37.659Z,32.29
2019-03-11T03:21:37.662Z,32.29
2019-03-11T03:22:37.638Z,32.48
2019-03-11T03:23:37.627Z,31.97
2019-03-11T03:24:37.623Z,31.99
2019-03-11T03:25:37.606Z,32.09
2019-03-11T03:26:37.623Z,32.18
2019-03-11T03:27:37.645Z,32.47
2019-03-11T03:28:37.577Z,32.67
2019-03-11T03:29:37.567Z,32.67
2019-03-11T03:30:37.555Z,32.09
2019-03-11T03:31:37.545Z,32.59
2019-03-11T03:32:37.543Z,31.89
2019-03-11T03:33:37.534Z,32.78
2019-03-11T03:34:37.518Z,32.90
2019-03-11T03:35:37.498Z,32.90
2019-03-11T03:36:37.490Z,32.70
2019-03-11T03:37:37.493Z,32.90
2019-03-11T03:38:37.467Z,32.78
2019-03-11T03:39:37.458Z,32.89
2019-03-11T03:40:37.449Z,31.99
2019-03-11T03:41:37.437Z,32.29
2019-03-11T03:42:37.529Z,31.99
2019-03-11T03:43:37.421Z,32.29
2019-03-11T03:44:37.405Z,32.29
2019-03-11T03:45:37.396Z,32.09
2019-03-11T03:46:37.384Z,32.39
2019-03-11T03:47:37.387Z,32.07
2019-03-11T03:48:37.585Z,32.27
2019-03-11T03:49:37.376Z,32.27
2019-03-11T03:50:37.340Z,31.59
2019-03-11T03:51:37.329Z,32.37
2019-03-11T03:52:37.339Z,32.09
2019-03-11T03:53:37.306Z,32.39
2019-03-11T03:54:37.298Z,31.69
2019-03-11T03:55:37.286Z,32.59
2019-03-11T03:56:37.275Z,32.18
2019-03-11T03:57:37.278Z,31.89
2019-03-11T03:58:37.280Z,32.10
2019-03-11T03:59:37.248Z,33.00
2019-03-11T04:00:37.241Z,33.10
2019-03-11T04:01:37.226Z,32.90
2019-03-11T04:02:37.241Z,33.10
2019-03-11T04:03:37.205Z,31.79
2019-03-11T04:04:37.227Z,32.09
2019-03-11T04:05:37.188Z,31.79
2019-03-11T04:06:37.178Z,32.09
2019-03-11T04:07:37.175Z,32.39
2019-03-11T04:08:37.166Z,32.48
2019-03-11T04:09:37.143Z,32.29
2019-03-11T04:10:37.138Z,32.09
2019-03-11T04:11:37.119Z,31.67
2019-03-11T04:12:37.125Z,31.59
2019-03-11T04:13:37.108Z,31.57
2019-03-11T04:14:37.095Z,32.29
2019-03-11T04:15:37.077Z,31.59
2019-03-11T04:16:37.068Z,31.57
2019-03-11T04:17:37.091Z,32.29
2019-03-11T04:18:37.050Z,31.77
2019-03-11T04:19:37.035Z,32.59
2019-03-11T04:20:37.025Z,32.09
2019-03-11T04:21:37.025Z,32.10
2019-03-11T04:22:37.007Z,31.90
2019-03-11T04:23:37.018Z,33.20
2019-03-11T04:24:36.988Z,32.82
2019-03-11T04:25:36.975Z,32.82
2019-03-11T04:26:36.961Z,32.92
2019-03-11T04:27:36.955Z,33.01
2019-03-11T04:28:36.958Z,32.71
2019-03-11T04:29:36.936Z,32.82
2019-03-11T04:30:36.923Z,33.10
2019-03-11T04:31:36.913Z,31.89
2019-03-11T04:32:36.903Z,31.89
2019-03-11T04:33:36.907Z,32.29
2019-03-11T04:34:36.886Z,32.18
2019-03-11T04:35:36.872Z,31.99
2019-03-11T04:36:36.856Z,31.57
2019-03-11T04:37:36.844Z,31.77
2019-03-11T04:38:36.851Z,31.37
2019-03-11T04:39:36.835Z,31.06
2019-03-11T04:40:36.823Z,31.57
2019-03-11T04:41:36.804Z,31.46
2019-03-11T04:42:36.798Z,31.06
2019-03-11T04:43:36.801Z,31.76
2019-03-11T04:44:36.777Z,31.66
2019-03-11T04:45:36.764Z,31.56
2019-03-11T04:46:36.754Z,31.56
2019-03-11T04:47:36.745Z,31.48
2019-03-11T04:48:36.748Z,31.86
2019-03-11T04:49:36.725Z,31.66
2019-03-11T04:50:36.709Z,31.66
2019-03-11T04:51:36.696Z,31.56
2019-03-11T04:52:36.698Z,31.57
2019-03-11T04:53:36.712Z,31.57
2019-03-11T04:54:36.670Z,31.76
2019-03-11T04:55:36.661Z,31.66
2019-03-11T04:56:36.648Z,31.46
2019-03-11T04:57:36.641Z,31.36
2019-03-11T04:58:36.629Z,31.36
2019-03-11T04:59:36.632Z,31.56
2019-03-11T05:00:36.604Z,31.36
2019-03-11T05:01:36.594Z,31.46
2019-03-11T05:02:36.587Z,31.46
2019-03-11T05:03:36.574Z,31.26
2019-03-11T05:04:36.577Z,31.66
2019-03-11T05:05:36.560Z,31.36
2019-03-11T05:06:36.547Z,32.06
2019-03-11T05:07:36.529Z,32.06
2019-03-11T05:08:36.534Z,31.26
2019-03-11T05:09:36.523Z,31.76
2019-03-11T05:10:36.502Z,31.77
2019-03-11T05:11:36.494Z,31.48
2019-03-11T05:12:36.481Z,32.07
2019-03-11T05:13:36.468Z,31.99
2019-03-11T05:14:36.476Z,32.29
2019-03-11T05:15:36.452Z,32.18
2019-03-11T05:16:36.436Z,32.18
2019-03-11T05:17:36.442Z,31.81
2019-03-11T05:18:36.421Z,31.92
2019-03-11T05:19:36.446Z,32.92
2019-03-11T05:20:36.398Z,33.12
2019-03-11T05:21:36.397Z,33.03
2019-03-11T05:22:36.374Z,32.83
2019-03-11T05:23:36.362Z,32.63
2019-03-11T05:24:36.368Z,32.83
2019-03-11T05:25:36.343Z,33.04
2019-03-11T05:26:36.332Z,33.75
2019-03-11T05:27:36.320Z,33.35
2019-03-11T05:28:36.306Z,33.75
2019-03-11T05:29:36.323Z,33.75
2019-03-11T05:30:36.294Z,33.95
2019-03-11T05:31:36.278Z,33.26
2019-03-11T05:32:36.272Z,34.06
2019-03-11T05:33:36.258Z,33.36
2019-03-11T05:34:36.272Z,34.06
2019-03-11T05:35:36.245Z,33.88
2019-03-11T05:36:36.227Z,34.28
2019-03-11T05:37:36.266Z,34.48
2019-03-11T05:38:36.207Z,33.68
2019-03-11T05:39:36.196Z,34.08
2019-03-11T05:40:36.201Z,34.38
2019-03-11T05:41:36.172Z,34.59
2019-03-11T05:42:36.164Z,33.89
2019-03-11T05:43:36.156Z,34.19
2019-03-11T05:44:36.145Z,34.30
2019-03-11T05:45:36.149Z,34.09
2019-03-11T05:46:36.119Z,34.61
2019-03-11T05:47:36.110Z,34.59
2019-03-11T05:48:36.106Z,34.59
2019-03-11T05:49:36.092Z,35.11
2019-03-11T05:50:36.090Z,35.21
2019-03-11T05:51:36.077Z,36.01
2019-03-11T05:52:36.064Z,35.81
2019-03-11T05:53:36.062Z,36.21
2019-03-11T05:54:36.035Z,37.11
2019-03-11T05:55:36.058Z,37.71
2019-03-11T05:56:36.024Z,37.63
2019-03-11T05:57:36.004Z,38.53
2019-03-11T05:58:35.998Z,38.43
2019-03-11T05:59:35.982Z,39.23
2019-03-11T06:00:35.986Z,39.73
2019-03-11T06:01:35.964Z,39.75
2019-03-11T06:02:36.632Z,40.15
2019-03-11T06:03:35.940Z,40.95
2019-03-11T06:04:35.935Z,41.77
2019-03-11T06:05:35.949Z,41.67
2019-03-11T06:06:35.916Z,42.18
2019-03-11T06:07:35.897Z,41.85
2019-03-11T06:08:35.889Z,41.05
2019-03-11T06:09:35.878Z,41.66
2019-03-11T06:10:35.869Z,41.75
2019-03-11T06:11:35.882Z,41.43
2019-03-11T06:12:35.846Z,42.13
2019-03-11T06:13:36.384Z,41.63
2019-03-11T06:14:35.826Z,41.41
2019-03-11T06:15:35.818Z,41.02
2019-03-11T06:16:35.826Z,41.11
2019-03-11T06:17:35.908Z,40.91
2019-03-11T06:18:35.783Z,40.71
2019-03-11T06:19:35.772Z,41.41
2019-03-11T06:20:35.786Z,41.02
2019-03-11T06:21:35.766Z,40.31
2019-03-11T06:22:35.740Z,40.61
2019-03-11T06:23:35.730Z,40.61
2019-03-11T06:24:35.717Z,40.80
2019-03-11T06:25:35.713Z,40.89
2019-03-11T06:26:35.708Z,39.78
2019-03-11T06:27:35.704Z,39.78
2019-03-11T06:28:35.699Z,39.76
2019-03-11T06:29:35.666Z,39.54
2019-03-11T06:30:35.677Z,39.43
2019-03-11T06:31:35.659Z,39.90
2019-03-11T06:32:35.637Z,39.62
2019-03-11T06:33:35.626Z,39.80
2019-03-11T06:34:35.636Z,39.82
2019-03-11T06:35:35.612Z,39.80
2019-03-11T06:36:35.615Z,39.80
2019-03-11T06:37:35.589Z,39.72
2019-03-11T06:38:35.576Z,40.01
2019-03-11T06:39:35.567Z,39.72
2019-03-11T06:40:35.547Z,40.92
2019-03-11T06:41:35.573Z,37.42
2019-03-11T06:42:35.527Z,35.64
2019-03-11T06:43:35.634Z,34.83
2019-03-11T06:44:35.511Z,36.22
2019-03-11T06:45:35.497Z,36.43
2019-03-11T06:46:35.542Z,36.74
2019-03-11T06:47:35.478Z,36.34
2019-03-11T06:48:35.467Z,37.14
2019-03-11T06:49:35.459Z,37.86
2019-03-11T06:50:35.445Z,37.56
2019-03-11T06:51:35.431Z,37.76
2019-03-11T06:52:35.436Z,37.66
2019-03-11T06:53:35.420Z,38.85
2019-03-11T06:54:35.408Z,37.98
2019-03-11T06:55:35.390Z,36.08
2019-03-11T06:56:35.380Z,36.98
2019-03-11T06:57:35.403Z,37.27
2019-03-11T06:58:35.362Z,36.88
2019-03-11T06:59:35.349Z,37.27
2019-03-11T07:00:35.341Z,37.98
2019-03-11T07:01:35.328Z,37.66
2019-03-11T07:02:35.339Z,37.68
2019-03-11T07:03:35.311Z,37.76
2019-03-11T07:04:35.294Z,37.66
2019-03-11T07:05:35.285Z,37.38
2019-03-11T07:06:35.282Z,37.68
2019-03-11T07:07:35.283Z,37.58
2019-03-11T07:08:35.257Z,38.07
2019-03-11T07:09:35.254Z,37.46
2019-03-11T07:10:35.238Z,37.98
2019-03-11T07:11:35.226Z,37.76
2019-03-11T07:12:35.232Z,37.16
2019-03-11T07:13:35.204Z,37.16
2019-03-11T07:14:35.191Z,37.26
2019-03-11T07:15:35.204Z,36.36
2019-03-11T07:16:35.180Z,36.86
2019-03-11T07:17:35.176Z,36.76
2019-03-11T07:18:35.155Z,36.24
2019-03-11T07:19:35.138Z,36.04
2019-03-11T07:20:35.130Z,35.94
2019-03-11T07:21:35.119Z,36.15
2019-03-11T07:22:35.121Z,35.36
2019-03-11T07:23:35.096Z,35.66
2019-03-11T07:24:35.089Z,36.06
2019-03-11T07:25:35.087Z,36.06
2019-03-11T07:26:35.093Z,36.06
2019-03-11T07:27:35.105Z,36.36
2019-03-11T07:28:35.114Z,36.38
2019-03-11T07:29:35.041Z,36.38
2019-03-11T07:30:35.023Z,36.28
2019-03-11T07:31:35.011Z,36.38
2019-03-11T07:32:35.017Z,36.28
2019-03-11T07:33:35.011Z,36.08
2019-03-11T07:34:34.985Z,36.98
2019-03-11T07:35:34.973Z,36.58
2019-03-11T07:36:34.961Z,36.99
2019-03-11T07:37:34.949Z,36.49
2019-03-11T07:38:34.953Z,36.79
2019-03-11T07:39:34.936Z,36.29
2019-03-11T07:40:34.919Z,36.69
2019-03-11T07:41:34.907Z,36.90
2019-03-11T07:42:34.908Z,36.99
2019-03-11T07:43:34.906Z,36.99
2019-03-11T07:44:34.887Z,36.69
2019-03-11T07:45:34.870Z,36.99
2019-03-11T07:46:34.870Z,36.19
2019-03-11T07:47:34.848Z,36.90
2019-03-11T07:48:34.857Z,36.49
2019-03-11T07:49:34.829Z,36.19
2019-03-11T07:50:34.815Z,36.10
2019-03-11T07:51:34.805Z,36.10
2019-03-11T07:52:34.795Z,35.49
2019-03-11T07:53:34.799Z,35.60
2019-03-11T07:54:36.012Z,36.31
2019-03-11T07:55:34.762Z,36.11
2019-03-11T07:56:34.753Z,35.81
2019-03-11T07:57:34.743Z,36.51
2019-03-11T07:58:34.749Z,36.71
2019-03-11T07:59:34.720Z,37.21
2019-03-11T08:00:34.777Z,35.83
2019-03-11T08:01:34.698Z,35.03
2019-03-11T08:02:34.691Z,34.73
2019-03-11T08:03:34.696Z,34.73
2019-03-11T08:04:34.668Z,36.05
2019-03-11T08:05:34.661Z,35.75
2019-03-11T08:06:34.649Z,35.35
2019-03-11T08:07:34.633Z,36.15
2019-03-11T08:08:34.745Z,37.75
2019-03-11T08:09:38.265Z,37.95
2019-03-11T08:10:34.606Z,38.05
2019-03-11T08:11:34.595Z,37.93
2019-03-11T08:12:34.586Z,37.21
2019-03-11T08:13:34.598Z,37.49
2019-03-11T08:14:34.567Z,42.18
2019-03-11T08:15:34.562Z,38.68
2019-03-11T08:16:34.543Z,38.28
2019-03-11T08:17:34.532Z,37.96
2019-03-11T08:18:35.461Z,36.84
2019-03-11T08:19:34.524Z,36.34
2019-03-11T08:20:34.494Z,38.14
2019-03-11T08:21:34.491Z,36.96
2019-03-11T08:22:34.486Z,36.54
2019-03-11T08:23:35.757Z,37.24
2019-03-11T08:24:34.479Z,36.15
2019-03-11T08:25:34.445Z,37.06
2019-03-11T08:26:34.439Z,35.85
2019-03-11T08:27:34.424Z,36.04
2019-03-11T08:28:34.415Z,36.26
2019-03-11T08:29:34.428Z,35.64
2019-03-11T08:30:34.402Z,35.24
2019-03-11T08:31:34.392Z,34.83
2019-03-11T08:32:34.381Z,35.23
2019-03-11T08:33:34.358Z,35.23
2019-03-11T08:34:34.364Z,34.41
2019-03-11T08:35:34.343Z,34.00
2019-03-11T08:36:34.329Z,34.30
2019-03-11T08:37:34.325Z,34.59
2019-03-11T08:38:34.313Z,33.78
2019-03-11T08:39:34.319Z,34.38
2019-03-11T08:40:34.285Z,33.98
2019-03-11T08:41:34.276Z,33.56
2019-03-11T08:42:34.267Z,32.77
2019-03-11T08:43:34.253Z,33.98
2019-03-11T08:44:34.259Z,33.08
2019-03-11T08:45:34.292Z,33.68
2019-03-11T08:46:34.225Z,33.38
2019-03-11T08:47:34.214Z,33.00
2019-03-11T08:48:34.204Z,33.90
2019-03-11T08:49:34.204Z,34.09
2019-03-11T08:50:34.183Z,34.20
2019-03-11T08:51:34.171Z,34.21
2019-03-11T08:52:34.161Z,34.01
2019-03-11T08:53:34.159Z,34.21
2019-03-11T08:54:34.156Z,35.21
2019-03-11T08:55:34.130Z,36.02
2019-03-11T08:56:34.120Z,38.90
2019-03-11T08:57:34.105Z,40.20
2019-03-11T08:58:34.099Z,40.10
2019-03-11T08:59:34.117Z,40.10
2019-03-11T09:00:34.074Z,39.80
2019-03-11T09:01:34.068Z,39.20
2019-03-11T09:02:34.056Z,40.10
2019-03-11T09:03:34.046Z,41.19
2019-03-11T09:04:34.033Z,40.70
2019-03-11T09:05:34.043Z,40.78
2019-03-11T09:06:34.014Z,40.98
2019-03-11T09:07:34.004Z,41.60
2019-03-11T09:08:33.994Z,41.50
2019-03-11T09:09:33.978Z,41.47
2019-03-11T09:10:33.982Z,41.60
2019-03-11T09:11:33.968Z,41.77
2019-03-11T09:12:33.953Z,41.58
2019-03-11T09:13:33.939Z,41.30
2019-03-11T09:14:33.926Z,41.09
2019-03-11T09:15:33.937Z,41.69
2019-03-11T09:16:33.907Z,41.30
2019-03-11T09:17:34.782Z,41.39
2019-03-11T09:18:33.891Z,40.70
2019-03-11T09:19:33.876Z,40.89
2019-03-11T09:20:33.883Z,39.60
2019-03-11T09:21:33.858Z,39.52
2019-03-11T09:22:33.843Z,39.42
2019-03-11T09:23:33.840Z,40.12
2019-03-11T09:24:33.833Z,40.81
2019-03-11T09:25:33.832Z,39.92
2019-03-11T09:26:33.813Z,39.84
2019-03-11T09:27:33.804Z,38.72
2019-03-11T09:28:33.954Z,39.34
2019-03-11T09:29:33.796Z,38.24
2019-03-11T09:30:33.789Z,38.74
2019-03-11T09:31:33.765Z,38.74
2019-03-11T09:32:33.741Z,37.54
2019-03-11T09:33:33.743Z,37.84
2019-03-11T09:34:33.725Z,37.54
2019-03-11T09:35:33.721Z,37.14
2019-03-11T09:36:33.709Z,37.14
2019-03-11T09:37:33.688Z,37.94
2019-03-11T09:38:33.693Z,37.84
2019-03-11T09:39:33.683Z,37.24
2019-03-11T09:40:33.661Z,37.64
2019-03-11T09:41:33.664Z,37.74
2019-03-11T09:42:33.637Z,36.64
2019-03-11T09:43:33.624Z,36.15
2019-03-11T09:44:33.652Z,36.34
2019-03-11T09:45:33.609Z,36.04
2019-03-11T09:46:33.607Z,36.84
2019-03-11T09:47:33.585Z,36.02
2019-03-11T09:48:33.568Z,36.34
2019-03-11T09:49:33.562Z,35.33
2019-03-11T09:50:33.554Z,35.42
2019-03-11T09:51:33.559Z,36.34
2019-03-11T09:52:33.531Z,35.64
2019-03-11T09:53:33.523Z,35.44
2019-03-11T09:54:33.517Z,35.33
2019-03-11T09:55:33.505Z,35.14
2019-03-11T09:56:42.876Z,35.86
2019-03-11T09:57:34.497Z,35.76
2019-03-11T09:58:33.477Z,35.56
2019-03-11T09:59:33.461Z,35.48
2019-03-11T10:00:33.447Z,36.28
2019-03-11T10:01:33.456Z,36.08
2019-03-11T10:02:33.431Z,37.08
2019-03-11T10:03:33.415Z,36.10
2019-03-11T10:04:33.403Z,36.10
2019-03-11T10:05:33.392Z,36.90
2019-03-11T10:06:33.407Z,37.01
2019-03-11T10:07:33.378Z,37.21
2019-03-11T10:08:33.376Z,37.41
2019-03-11T10:09:33.366Z,37.51
2019-03-11T10:10:33.341Z,37.81
2019-03-11T10:11:33.358Z,37.61
2019-03-11T10:12:33.325Z,37.73
2019-03-11T10:13:33.315Z,38.63
2019-03-11T10:14:33.299Z,38.73
2019-03-11T10:15:33.290Z,38.03
2019-03-11T10:16:33.298Z,37.23
2019-03-11T10:17:33.266Z,37.73
2019-03-11T10:18:33.263Z,38.33
2019-03-11T10:19:33.248Z,38.33
2019-03-11T10:20:33.237Z,37.43
2019-03-11T10:21:33.248Z,37.83
2019-03-11T10:22:33.221Z,37.51
2019-03-11T10:23:33.208Z,38.01
2019-03-11T10:24:33.192Z,37.29
2019-03-11T10:25:33.184Z,36.18
2019-03-11T10:26:33.179Z,36.16
2019-03-11T10:27:33.180Z,35.35
2019-03-11T10:28:33.162Z,35.35
2019-03-11T10:29:33.146Z,34.93
2019-03-11T10:30:33.130Z,35.21
2019-03-11T10:31:33.142Z,34.50
2019-03-11T10:32:33.129Z,33.80
2019-03-11T10:33:33.102Z,34.09
2019-03-11T10:34:33.087Z,34.50
2019-03-11T10:35:33.293Z,33.88
2019-03-11T10:36:33.068Z,34.38
2019-03-11T10:37:33.073Z,34.38
2019-03-11T10:38:33.048Z,33.88
2019-03-11T10:39:33.036Z,34.58
2019-03-11T10:40:33.023Z,34.78
2019-03-11T10:41:33.012Z,34.38
2019-03-11T10:42:33.020Z,34.58
2019-03-11T10:43:32.996Z,34.27
2019-03-11T10:44:32.983Z,34.56
2019-03-11T10:45:32.974Z,34.16
2019-03-11T10:46:32.964Z,34.64
2019-03-11T10:47:32.966Z,34.75
2019-03-11T10:48:37.068Z,34.03
2019-03-11T10:49:32.931Z,34.43
2019-03-11T10:50:32.924Z,34.13
2019-03-11T10:51:32.915Z,33.92
2019-03-11T10:52:32.933Z,34.41
2019-03-11T10:53:32.892Z,33.70
2019-03-11T10:54:32.886Z,34.20
2019-03-11T10:55:32.868Z,34.11
2019-03-11T10:56:32.856Z,33.92
2019-03-11T10:57:32.865Z,34.22
2019-03-11T10:58:32.835Z,33.92
2019-03-11T10:59:32.822Z,33.62
2019-03-11T11:00:32.819Z,34.01
2019-03-11T11:01:32.831Z,34.71
2019-03-11T11:02:32.809Z,34.71
2019-03-11T11:03:32.788Z,33.83
2019-03-11T11:04:32.771Z,34.83
2019-03-11T11:05:32.760Z,35.22
2019-03-11T11:06:32.757Z,33.63
2019-03-11T11:07:32.761Z,34.73
2019-03-11T11:08:32.734Z,34.73
2019-03-11T11:09:32.718Z,34.83
2019-03-11T11:10:32.710Z,34.61
2019-03-11T11:11:32.701Z,34.22
2019-03-11T11:12:32.705Z,34.91
2019-03-11T11:13:32.688Z,34.03
2019-03-11T11:14:32.670Z,35.11
2019-03-11T11:15:32.657Z,35.11
2019-03-11T11:16:32.650Z,34.91
2019-03-11T11:17:32.649Z,34.11
2019-03-11T11:18:32.626Z,35.33
2019-03-11T11:19:32.628Z,35.11
2019-03-11T11:20:32.605Z,36.02
2019-03-11T11:21:32.595Z,35.03
2019-03-11T11:22:32.604Z,35.63
2019-03-11T11:23:32.572Z,34.83
2019-03-11T11:24:32.566Z,35.82
2019-03-11T11:25:32.561Z,35.82
2019-03-11T11:26:32.543Z,36.34
2019-03-11T11:27:32.545Z,36.04
2019-03-11T11:28:32.520Z,37.45
2019-03-11T11:29:32.514Z,37.17
2019-03-11T11:30:32.500Z,37.57
2019-03-11T11:31:32.499Z,37.47
2019-03-11T11:32:32.494Z,38.76
2019-03-11T11:33:32.472Z,38.96
2019-03-11T11:34:32.459Z,39.36
2019-03-11T11:35:32.448Z,40.08
2019-03-11T11:36:32.468Z,39.98
2019-03-11T11:37:32.447Z,39.78
2019-03-11T11:38:32.428Z,40.78
2019-03-11T11:39:32.408Z,41.17
2019-03-11T11:40:32.398Z,41.67
2019-03-11T11:41:32.390Z,41.67
2019-03-11T11:42:32.394Z,41.28
2019-03-11T11:43:32.371Z,41.47
2019-03-11T11:44:32.362Z,40.88
2019-03-11T11:45:32.346Z,42.07
2019-03-11T11:46:32.331Z,41.38
2019-03-11T11:47:32.346Z,41.58
2019-03-11T11:48:32.313Z,43.65
2019-03-11T11:49:32.302Z,41.85
2019-03-11T11:50:32.288Z,41.58
2019-03-11T11:51:32.286Z,43.87
2019-03-11T11:52:32.293Z,41.58
2019-03-11T11:53:32.282Z,41.17
2019-03-11T11:54:32.250Z,41.47
2019-03-11T11:55:32.237Z,41.09
2019-03-11T11:56:32.231Z,41.60
2019-03-11T11:57:32.240Z,41.39
2019-03-11T11:58:32.204Z,40.80
2019-03-11T11:59:32.192Z,41.30
2019-03-11T12:00:32.186Z,41.41
2019-03-11T12:01:32.177Z,41.61
2019-03-11T12:02:32.179Z,41.61
2019-03-11T12:03:32.154Z,41.41
2019-03-11T12:04:32.141Z,41.11
2019-03-11T12:05:32.196Z,41.22
2019-03-11T12:06:32.117Z,41.33
2019-03-11T12:07:32.241Z,41.71
2019-03-11T12:08:32.106Z,41.41
2019-03-11T12:09:32.092Z,41.61
2019-03-11T12:10:32.078Z,41.19
2019-03-11T12:11:32.075Z,41.39
2019-03-11T12:12:32.085Z,42.02
2019-03-11T12:13:32.049Z,42.02
2019-03-11T12:14:32.038Z,41.53
2019-03-11T12:15:32.031Z,41.53
2019-03-11T12:16:32.023Z,41.75
2019-03-11T12:17:32.027Z,42.25
2019-03-11T12:18:32.009Z,41.46
2019-03-11T12:19:31.989Z,42.55
2019-03-11T12:20:31.977Z,41.96
2019-03-11T12:21:31.969Z,42.18
2019-03-11T12:22:31.970Z,43.07
2019-03-11T12:23:31.948Z,42.07
2019-03-11T12:24:31.933Z,42.07
2019-03-11T12:25:31.924Z,43.48
2019-03-11T12:26:31.911Z,42.97
2019-03-11T12:27:31.921Z,43.09
2019-03-11T12:28:31.899Z,42.60
2019-03-11T12:29:31.897Z,42.11
2019-03-11T12:30:31.869Z,42.32
2019-03-11T12:31:31.862Z,42.61
2019-03-11T12:32:31.857Z,42.41
2019-03-11T12:33:31.854Z,43.12
2019-03-11T12:34:31.832Z,42.41
2019-03-11T12:35:31.821Z,42.11
2019-03-11T12:36:31.811Z,42.11
2019-03-11T12:37:31.817Z,41.99
2019-03-11T12:38:31.845Z,41.41
2019-03-11T12:39:31.785Z,41.69
2019-03-11T12:40:31.772Z,41.89
2019-03-11T12:41:31.762Z,41.89
2019-03-11T12:42:31.758Z,41.09
2019-03-11T12:43:31.761Z,40.89
2019-03-11T12:44:31.722Z,41.49
2019-03-11T12:45:31.710Z,40.97
2019-03-11T12:46:31.710Z,40.58
2019-03-11T12:47:31.696Z,39.78
2019-03-11T12:48:31.697Z,40.06
2019-03-11T12:49:31.667Z,39.65
2019-03-11T12:50:31.660Z,40.06
2019-03-11T12:51:31.652Z,39.95
2019-03-11T12:52:31.641Z,39.84